sensor_id;sensor_type;location;lat;lon;timestamp;P1;durP1;ratioP1;P2;durP2;ratioP2
41293;SDS011;27037;52.010;4.446;2023-05-07T00:02:25;49.30;;;29.98;;
41293;SDS011;27037;52.010;4.446;2023-05-07T00:04:50;48.25;;;29.20;;
41293;SDS011;27037;52.010;4.446;2023-05-07T00:07:17;45.60;;;29.80;;
41293;SDS011;27037;52.010;4.446;2023-05-07T00:09:42;52.15;;;28.80;;
41293;SDS011;27037;52.010;4.446;2023-05-07T00:12:08;48.72;;;28.63;;
41293;SDS011;27037;52.010;4.446;2023-05-07T00:14:34;50.08;;;30.08;;
41293;SDS011;27037;52.010;4.446;2023-05-07T00:16:59;44.40;;;28.58;;
41293;SDS011;27037;52.010;4.446;2023-05-07T00:19:25;50.72;;;30.13;;
41293;SDS011;27037;52.010;4.446;2023-05-07T00:21:50;45.03;;;28.45;;
41293;SDS011;27037;52.010;4.446;2023-05-07T00:24:18;48.45;;;29.27;;
41293;SDS011;27037;52.010;4.446;2023-05-07T00:26:44;47.22;;;28.55;;
41293;SDS011;27037;52.010;4.446;2023-05-07T00:29:09;46.40;;;29.48;;
41293;SDS011;27037;52.010;4.446;2023-05-07T00:31:35;48.00;;;29.10;;
41293;SDS011;27037;52.010;4.446;2023-05-07T00:34:01;51.05;;;31.65;;
41293;SDS011;27037;52.010;4.446;2023-05-07T00:36:26;47.33;;;30.38;;
41293;SDS011;27037;52.010;4.446;2023-05-07T00:38:53;48.38;;;29.48;;
41293;SDS011;27037;52.010;4.446;2023-05-07T00:41:19;51.25;;;31.73;;
41293;SDS011;27037;52.010;4.446;2023-05-07T00:43:45;51.63;;;32.38;;
41293;SDS011;27037;52.010;4.446;2023-05-07T00:46:10;48.65;;;31.60;;
41293;SDS011;27037;52.010;4.446;2023-05-07T00:48:37;53.15;;;32.00;;
41293;SDS011;27037;52.010;4.446;2023-05-07T00:51:02;47.65;;;31.75;;
41293;SDS011;27037;52.010;4.446;2023-05-07T00:53:28;51.83;;;32.35;;
41293;SDS011;27037;52.010;4.446;2023-05-07T00:55:55;51.75;;;31.63;;
41293;SDS011;27037;52.010;4.446;2023-05-07T00:58:21;48.60;;;30.33;;
41293;SDS011;27037;52.010;4.446;2023-05-07T01:00:47;48.67;;;31.45;;
41293;SDS011;27037;52.010;4.446;2023-05-07T01:03:12;53.97;;;32.20;;
41293;SDS011;27037;52.010;4.446;2023-05-07T01:05:38;48.92;;;31.02;;
41293;SDS011;27037;52.010;4.446;2023-05-07T01:08:03;48.22;;;30.75;;
41293;SDS011;27037;52.010;4.446;2023-05-07T01:10:30;47.40;;;29.70;;
41293;SDS011;27037;52.010;4.446;2023-05-07T01:12:55;47.30;;;30.52;;
41293;SDS011;27037;52.010;4.446;2023-05-07T01:15:23;46.10;;;29.67;;
41293;SDS011;27037;52.010;4.446;2023-05-07T01:17:49;48.50;;;30.98;;
41293;SDS011;27037;52.010;4.446;2023-05-07T01:20:14;48.17;;;29.63;;
41293;SDS011;27037;52.010;4.446;2023-05-07T01:22:40;48.85;;;29.90;;
41293;SDS011;27037;52.010;4.446;2023-05-07T01:25:07;46.72;;;29.48;;
41293;SDS011;27037;52.010;4.446;2023-05-07T01:27:33;49.80;;;30.42;;
41293;SDS011;27037;52.010;4.446;2023-05-07T01:30:01;47.45;;;29.63;;
41293;SDS011;27037;52.010;4.446;2023-05-07T01:32:35;50.13;;;29.33;;
41293;SDS011;27037;52.010;4.446;2023-05-07T01:35:22;46.20;;;28.98;;
41293;SDS011;27037;52.010;4.446;2023-05-07T01:37:51;44.88;;;27.10;;
41293;SDS011;27037;52.010;4.446;2023-05-07T01:40:18;43.25;;;27.45;;
41293;SDS011;27037;52.010;4.446;2023-05-07T01:42:44;45.25;;;27.55;;
41293;SDS011;27037;52.010;4.446;2023-05-07T01:45:10;41.20;;;26.70;;
41293;SDS011;27037;52.010;4.446;2023-05-07T01:47:37;44.63;;;27.77;;
41293;SDS011;27037;52.010;4.446;2023-05-07T01:50:04;38.65;;;25.50;;
41293;SDS011;27037;52.010;4.446;2023-05-07T01:52:31;43.72;;;26.40;;
41293;SDS011;27037;52.010;4.446;2023-05-07T01:54:56;42.90;;;27.75;;
41293;SDS011;27037;52.010;4.446;2023-05-07T01:57:22;40.63;;;26.70;;
41293;SDS011;27037;52.010;4.446;2023-05-07T01:59:48;44.13;;;27.40;;
41293;SDS011;27037;52.010;4.446;2023-05-07T02:02:13;43.95;;;26.42;;
41293;SDS011;27037;52.010;4.446;2023-05-07T02:04:39;47.05;;;28.02;;
41293;SDS011;27037;52.010;4.446;2023-05-07T02:07:05;42.20;;;28.42;;
41293;SDS011;27037;52.010;4.446;2023-05-07T02:09:30;41.70;;;28.42;;
41293;SDS011;27037;52.010;4.446;2023-05-07T02:11:56;41.42;;;27.15;;
41293;SDS011;27037;52.010;4.446;2023-05-07T02:14:22;39.13;;;27.05;;
41293;SDS011;27037;52.010;4.446;2023-05-07T02:16:47;42.97;;;27.55;;
41293;SDS011;27037;52.010;4.446;2023-05-07T02:19:13;41.50;;;27.58;;
41293;SDS011;27037;52.010;4.446;2023-05-07T02:21:38;44.13;;;28.10;;
41293;SDS011;27037;52.010;4.446;2023-05-07T02:24:04;42.17;;;28.67;;
41293;SDS011;27037;52.010;4.446;2023-05-07T02:26:30;41.60;;;28.50;;
41293;SDS011;27037;52.010;4.446;2023-05-07T02:28:55;40.03;;;28.35;;
41293;SDS011;27037;52.010;4.446;2023-05-07T02:31:21;40.85;;;27.98;;
41293;SDS011;27037;52.010;4.446;2023-05-07T02:33:47;40.88;;;28.90;;
41293;SDS011;27037;52.010;4.446;2023-05-07T02:36:12;49.72;;;30.95;;
41293;SDS011;27037;52.010;4.446;2023-05-07T02:38:38;42.45;;;29.10;;
41293;SDS011;27037;52.010;4.446;2023-05-07T02:41:04;40.63;;;29.55;;
41293;SDS011;27037;52.010;4.446;2023-05-07T02:43:29;39.58;;;29.48;;
41293;SDS011;27037;52.010;4.446;2023-05-07T02:48:30;38.38;;;27.15;;
41293;SDS011;27037;52.010;4.446;2023-05-07T02:50:56;41.50;;;28.90;;
41293;SDS011;27037;52.010;4.446;2023-05-07T02:53:22;41.88;;;29.58;;
41293;SDS011;27037;52.010;4.446;2023-05-07T02:55:50;45.03;;;30.50;;
41293;SDS011;27037;52.010;4.446;2023-05-07T02:58:17;46.65;;;30.95;;
41293;SDS011;27037;52.010;4.446;2023-05-07T03:00:42;42.08;;;30.30;;
41293;SDS011;27037;52.010;4.446;2023-05-07T03:03:08;41.65;;;30.23;;
41293;SDS011;27037;52.010;4.446;2023-05-07T03:05:33;41.70;;;30.35;;
41293;SDS011;27037;52.010;4.446;2023-05-07T03:07:59;41.88;;;29.48;;
41293;SDS011;27037;52.010;4.446;2023-05-07T03:10:24;39.75;;;28.67;;
41293;SDS011;27037;52.010;4.446;2023-05-07T03:12:50;36.38;;;27.98;;
41293;SDS011;27037;52.010;4.446;2023-05-07T03:15:16;41.80;;;29.08;;
41293;SDS011;27037;52.010;4.446;2023-05-07T03:17:41;43.88;;;29.00;;
41293;SDS011;27037;52.010;4.446;2023-05-07T03:20:07;38.75;;;28.20;;
41293;SDS011;27037;52.010;4.446;2023-05-07T03:22:34;38.88;;;28.92;;
41293;SDS011;27037;52.010;4.446;2023-05-07T03:25:00;39.67;;;29.67;;
41293;SDS011;27037;52.010;4.446;2023-05-07T03:27:25;39.13;;;28.98;;
41293;SDS011;27037;52.010;4.446;2023-05-07T03:29:51;40.03;;;28.58;;
41293;SDS011;27037;52.010;4.446;2023-05-07T03:32:16;39.47;;;28.98;;
41293;SDS011;27037;52.010;4.446;2023-05-07T03:34:42;40.15;;;29.13;;
41293;SDS011;27037;52.010;4.446;2023-05-07T03:37:08;38.40;;;28.58;;
41293;SDS011;27037;52.010;4.446;2023-05-07T03:39:33;38.20;;;28.48;;
41293;SDS011;27037;52.010;4.446;2023-05-07T03:41:59;38.90;;;28.45;;
41293;SDS011;27037;52.010;4.446;2023-05-07T03:44:25;39.08;;;29.48;;
41293;SDS011;27037;52.010;4.446;2023-05-07T03:46:51;35.85;;;26.67;;
41293;SDS011;27037;52.010;4.446;2023-05-07T03:49:16;34.15;;;25.98;;
41293;SDS011;27037;52.010;4.446;2023-05-07T03:51:42;34.58;;;25.80;;
41293;SDS011;27037;52.010;4.446;2023-05-07T03:54:08;33.35;;;24.80;;
41293;SDS011;27037;52.010;4.446;2023-05-07T03:56:33;34.85;;;26.88;;
41293;SDS011;27037;52.010;4.446;2023-05-07T03:59:00;35.92;;;26.60;;
41293;SDS011;27037;52.010;4.446;2023-05-07T04:01:26;38.88;;;27.45;;
41293;SDS011;27037;52.010;4.446;2023-05-07T04:03:52;35.80;;;27.45;;
41293;SDS011;27037;52.010;4.446;2023-05-07T04:06:17;35.70;;;26.90;;
41293;SDS011;27037;52.010;4.446;2023-05-07T04:08:43;33.25;;;25.17;;
41293;SDS011;27037;52.010;4.446;2023-05-07T04:11:09;34.45;;;24.00;;
41293;SDS011;27037;52.010;4.446;2023-05-07T04:13:34;31.85;;;24.13;;
41293;SDS011;27037;52.010;4.446;2023-05-07T04:16:03;30.63;;;22.92;;
41293;SDS011;27037;52.010;4.446;2023-05-07T04:18:29;30.08;;;23.35;;
41293;SDS011;27037;52.010;4.446;2023-05-07T04:20:55;30.83;;;23.58;;
41293;SDS011;27037;52.010;4.446;2023-05-07T04:23:21;32.35;;;24.13;;
41293;SDS011;27037;52.010;4.446;2023-05-07T04:25:46;33.20;;;24.23;;
41293;SDS011;27037;52.010;4.446;2023-05-07T04:28:12;29.88;;;24.05;;
41293;SDS011;27037;52.010;4.446;2023-05-07T04:30:38;33.83;;;23.85;;
41293;SDS011;27037;52.010;4.446;2023-05-07T04:33:04;33.47;;;23.65;;
41293;SDS011;27037;52.010;4.446;2023-05-07T04:35:30;30.45;;;22.77;;
41293;SDS011;27037;52.010;4.446;2023-05-07T04:37:56;31.42;;;22.25;;
41293;SDS011;27037;52.010;4.446;2023-05-07T04:40:22;29.77;;;21.80;;
41293;SDS011;27037;52.010;4.446;2023-05-07T04:42:47;30.48;;;22.63;;
41293;SDS011;27037;52.010;4.446;2023-05-07T04:45:13;29.33;;;22.92;;
41293;SDS011;27037;52.010;4.446;2023-05-07T04:47:38;26.63;;;20.88;;
41293;SDS011;27037;52.010;4.446;2023-05-07T04:50:05;32.97;;;22.38;;
41293;SDS011;27037;52.010;4.446;2023-05-07T04:52:32;28.85;;;22.90;;
41293;SDS011;27037;52.010;4.446;2023-05-07T04:55:01;30.77;;;22.40;;
41293;SDS011;27037;52.010;4.446;2023-05-07T04:57:27;28.10;;;21.75;;
41293;SDS011;27037;52.010;4.446;2023-05-07T04:59:53;28.48;;;21.88;;
41293;SDS011;27037;52.010;4.446;2023-05-07T05:02:19;29.35;;;22.05;;
41293;SDS011;27037;52.010;4.446;2023-05-07T05:04:46;30.05;;;22.17;;
41293;SDS011;27037;52.010;4.446;2023-05-07T05:07:12;27.98;;;22.73;;
41293;SDS011;27037;52.010;4.446;2023-05-07T05:09:38;29.13;;;22.38;;
41293;SDS011;27037;52.010;4.446;2023-05-07T05:12:04;28.15;;;21.67;;
41293;SDS011;27037;52.010;4.446;2023-05-07T05:14:32;26.77;;;21.38;;
41293;SDS011;27037;52.010;4.446;2023-05-07T05:16:57;29.23;;;21.40;;
41293;SDS011;27037;52.010;4.446;2023-05-07T05:19:23;28.73;;;22.00;;
41293;SDS011;27037;52.010;4.446;2023-05-07T05:21:49;26.88;;;21.20;;
41293;SDS011;27037;52.010;4.446;2023-05-07T05:24:14;28.30;;;21.90;;
41293;SDS011;27037;52.010;4.446;2023-05-07T05:26:40;27.00;;;20.65;;
41293;SDS011;27037;52.010;4.446;2023-05-07T05:29:05;27.75;;;22.20;;
41293;SDS011;27037;52.010;4.446;2023-05-07T05:31:32;26.25;;;20.50;;
41293;SDS011;27037;52.010;4.446;2023-05-07T05:33:58;27.10;;;20.83;;
41293;SDS011;27037;52.010;4.446;2023-05-07T05:36:24;23.70;;;18.98;;
41293;SDS011;27037;52.010;4.446;2023-05-07T05:38:49;26.45;;;20.40;;
41293;SDS011;27037;52.010;4.446;2023-05-07T05:41:15;31.00;;;22.02;;
41293;SDS011;27037;52.010;4.446;2023-05-07T05:43:41;27.08;;;21.70;;
41293;SDS011;27037;52.010;4.446;2023-05-07T05:46:06;27.95;;;21.35;;
41293;SDS011;27037;52.010;4.446;2023-05-07T05:48:33;24.95;;;19.90;;
41293;SDS011;27037;52.010;4.446;2023-05-07T05:50:59;27.30;;;21.25;;
41293;SDS011;27037;52.010;4.446;2023-05-07T05:53:25;26.15;;;21.30;;
41293;SDS011;27037;52.010;4.446;2023-05-07T05:55:51;25.30;;;20.88;;
41293;SDS011;27037;52.010;4.446;2023-05-07T05:58:16;28.52;;;20.67;;
41293;SDS011;27037;52.010;4.446;2023-05-07T06:00:42;24.10;;;19.23;;
41293;SDS011;27037;52.010;4.446;2023-05-07T06:03:09;23.92;;;19.50;;
41293;SDS011;27037;52.010;4.446;2023-05-07T06:05:35;26.92;;;21.13;;
41293;SDS011;27037;52.010;4.446;2023-05-07T06:08:02;28.30;;;21.23;;
41293;SDS011;27037;52.010;4.446;2023-05-07T06:10:28;24.83;;;19.70;;
41293;SDS011;27037;52.010;4.446;2023-05-07T06:12:55;26.88;;;19.40;;
41293;SDS011;27037;52.010;4.446;2023-05-07T06:15:20;26.85;;;20.48;;
41293;SDS011;27037;52.010;4.446;2023-05-07T06:17:46;25.25;;;20.25;;
41293;SDS011;27037;52.010;4.446;2023-05-07T06:20:11;28.42;;;19.50;;
41293;SDS011;27037;52.010;4.446;2023-05-07T06:22:37;26.70;;;20.17;;
41293;SDS011;27037;52.010;4.446;2023-05-07T06:25:03;26.65;;;19.80;;
41293;SDS011;27037;52.010;4.446;2023-05-07T06:27:30;24.15;;;18.67;;
41293;SDS011;27037;52.010;4.446;2023-05-07T06:29:55;23.83;;;19.35;;
41293;SDS011;27037;52.010;4.446;2023-05-07T06:32:22;26.10;;;19.90;;
41293;SDS011;27037;52.010;4.446;2023-05-07T06:34:47;23.92;;;18.10;;
41293;SDS011;27037;52.010;4.446;2023-05-07T06:37:13;27.45;;;19.40;;
41293;SDS011;27037;52.010;4.446;2023-05-07T06:39:39;25.73;;;19.02;;
41293;SDS011;27037;52.010;4.446;2023-05-07T06:42:04;26.55;;;20.42;;
41293;SDS011;27037;52.010;4.446;2023-05-07T06:44:30;24.48;;;20.05;;
41293;SDS011;27037;52.010;4.446;2023-05-07T06:46:56;26.83;;;19.30;;
41293;SDS011;27037;52.010;4.446;2023-05-07T06:49:22;25.92;;;19.13;;
41293;SDS011;27037;52.010;4.446;2023-05-07T06:51:48;23.48;;;19.05;;
41293;SDS011;27037;52.010;4.446;2023-05-07T06:54:13;24.73;;;18.42;;
41293;SDS011;27037;52.010;4.446;2023-05-07T06:56:39;22.95;;;18.58;;
41293;SDS011;27037;52.010;4.446;2023-05-07T06:59:05;23.65;;;18.50;;
41293;SDS011;27037;52.010;4.446;2023-05-07T07:01:31;25.55;;;19.85;;
41293;SDS011;27037;52.010;4.446;2023-05-07T07:03:57;26.33;;;19.42;;
41293;SDS011;27037;52.010;4.446;2023-05-07T07:06:22;27.02;;;20.95;;
41293;SDS011;27037;52.010;4.446;2023-05-07T07:08:48;25.88;;;20.50;;
41293;SDS011;27037;52.010;4.446;2023-05-07T07:11:14;27.75;;;20.88;;
41293;SDS011;27037;52.010;4.446;2023-05-07T07:13:40;27.58;;;19.80;;
41293;SDS011;27037;52.010;4.446;2023-05-07T07:16:06;29.83;;;21.30;;
41293;SDS011;27037;52.010;4.446;2023-05-07T07:18:32;26.73;;;19.83;;
41293;SDS011;27037;52.010;4.446;2023-05-07T07:20:57;27.27;;;20.65;;
41293;SDS011;27037;52.010;4.446;2023-05-07T07:23:23;25.73;;;18.67;;
41293;SDS011;27037;52.010;4.446;2023-05-07T07:25:50;23.73;;;17.90;;
41293;SDS011;27037;52.010;4.446;2023-05-07T07:28:15;25.70;;;18.63;;
41293;SDS011;27037;52.010;4.446;2023-05-07T07:30:42;25.67;;;19.50;;
41293;SDS011;27037;52.010;4.446;2023-05-07T07:33:07;24.05;;;19.60;;
41293;SDS011;27037;52.010;4.446;2023-05-07T07:35:33;24.08;;;19.35;;
41293;SDS011;27037;52.010;4.446;2023-05-07T07:37:58;23.17;;;18.48;;
41293;SDS011;27037;52.010;4.446;2023-05-07T07:40:24;24.08;;;17.45;;
41293;SDS011;27037;52.010;4.446;2023-05-07T07:42:53;23.90;;;18.40;;
41293;SDS011;27037;52.010;4.446;2023-05-07T07:45:19;24.60;;;18.30;;
41293;SDS011;27037;52.010;4.446;2023-05-07T07:47:45;25.35;;;19.20;;
41293;SDS011;27037;52.010;4.446;2023-05-07T07:50:11;23.35;;;18.10;;
41293;SDS011;27037;52.010;4.446;2023-05-07T07:52:37;25.70;;;19.00;;
41293;SDS011;27037;52.010;4.446;2023-05-07T07:55:02;26.58;;;19.48;;
41293;SDS011;27037;52.010;4.446;2023-05-07T07:57:29;23.42;;;17.30;;
41293;SDS011;27037;52.010;4.446;2023-05-07T07:59:55;23.05;;;18.02;;
41293;SDS011;27037;52.010;4.446;2023-05-07T08:02:20;24.77;;;17.88;;
41293;SDS011;27037;52.010;4.446;2023-05-07T08:04:46;22.00;;;16.35;;
41293;SDS011;27037;52.010;4.446;2023-05-07T08:07:12;20.55;;;16.65;;
41293;SDS011;27037;52.010;4.446;2023-05-07T08:09:38;20.35;;;15.63;;
41293;SDS011;27037;52.010;4.446;2023-05-07T08:12:05;19.10;;;15.35;;
41293;SDS011;27037;52.010;4.446;2023-05-07T08:14:31;18.00;;;14.95;;
41293;SDS011;27037;52.010;4.446;2023-05-07T08:16:57;19.40;;;15.70;;
41293;SDS011;27037;52.010;4.446;2023-05-07T08:19:24;19.33;;;14.18;;
41293;SDS011;27037;52.010;4.446;2023-05-07T08:21:50;18.65;;;11.45;;
41293;SDS011;27037;52.010;4.446;2023-05-07T08:24:15;16.95;;;11.35;;
41293;SDS011;27037;52.010;4.446;2023-05-07T08:26:41;15.70;;;11.00;;
41293;SDS011;27037;52.010;4.446;2023-05-07T08:29:08;18.20;;;11.65;;
41293;SDS011;27037;52.010;4.446;2023-05-07T08:31:33;16.40;;;11.02;;
41293;SDS011;27037;52.010;4.446;2023-05-07T08:33:59;14.23;;;10.70;;
41293;SDS011;27037;52.010;4.446;2023-05-07T08:36:25;17.90;;;12.50;;
41293;SDS011;27037;52.010;4.446;2023-05-07T08:38:51;16.88;;;12.68;;
41293;SDS011;27037;52.010;4.446;2023-05-07T08:41:17;16.88;;;12.63;;
41293;SDS011;27037;52.010;4.446;2023-05-07T08:43:44;19.30;;;12.75;;
41293;SDS011;27037;52.010;4.446;2023-05-07T08:46:13;17.42;;;12.32;;
41293;SDS011;27037;52.010;4.446;2023-05-07T08:48:43;16.67;;;13.15;;
41293;SDS011;27037;52.010;4.446;2023-05-07T08:51:11;17.70;;;11.88;;
41293;SDS011;27037;52.010;4.446;2023-05-07T08:53:38;18.77;;;12.77;;
41293;SDS011;27037;52.010;4.446;2023-05-07T08:56:06;13.07;;;10.40;;
41293;SDS011;27037;52.010;4.446;2023-05-07T08:58:34;15.52;;;10.77;;
41293;SDS011;27037;52.010;4.446;2023-05-07T09:01:00;15.35;;;10.85;;
41293;SDS011;27037;52.010;4.446;2023-05-07T09:03:31;16.00;;;10.40;;
41293;SDS011;27037;52.010;4.446;2023-05-07T09:05:57;13.68;;;10.48;;
41293;SDS011;27037;52.010;4.446;2023-05-07T09:08:26;20.52;;;12.43;;
41293;SDS011;27037;52.010;4.446;2023-05-07T09:10:53;17.42;;;12.70;;
41293;SDS011;27037;52.010;4.446;2023-05-07T09:13:19;15.68;;;12.02;;
41293;SDS011;27037;52.010;4.446;2023-05-07T09:15:44;17.30;;;12.57;;
41293;SDS011;27037;52.010;4.446;2023-05-07T09:18:10;15.82;;;12.77;;
41293;SDS011;27037;52.010;4.446;2023-05-07T09:20:37;19.17;;;14.35;;
41293;SDS011;27037;52.010;4.446;2023-05-07T09:23:03;20.30;;;13.40;;
41293;SDS011;27037;52.010;4.446;2023-05-07T09:25:29;17.67;;;12.85;;
41293;SDS011;27037;52.010;4.446;2023-05-07T09:27:56;18.17;;;12.85;;
41293;SDS011;27037;52.010;4.446;2023-05-07T09:30:22;15.27;;;12.55;;
41293;SDS011;27037;52.010;4.446;2023-05-07T09:32:47;16.85;;;12.75;;
41293;SDS011;27037;52.010;4.446;2023-05-07T09:35:16;20.98;;;14.73;;
41293;SDS011;27037;52.010;4.446;2023-05-07T09:37:42;22.13;;;14.07;;
41293;SDS011;27037;52.010;4.446;2023-05-07T09:40:08;18.33;;;14.02;;
41293;SDS011;27037;52.010;4.446;2023-05-07T09:42:49;22.05;;;13.85;;
41293;SDS011;27037;52.010;4.446;2023-05-07T09:45:22;18.27;;;13.88;;
41293;SDS011;27037;52.010;4.446;2023-05-07T09:47:54;22.30;;;13.43;;
41293;SDS011;27037;52.010;4.446;2023-05-07T09:50:32;20.05;;;12.45;;
41293;SDS011;27037;52.010;4.446;2023-05-07T09:53:02;19.58;;;12.93;;
41293;SDS011;27037;52.010;4.446;2023-05-07T09:55:28;21.00;;;12.32;;
41293;SDS011;27037;52.010;4.446;2023-05-07T09:57:55;17.02;;;11.82;;
41293;SDS011;27037;52.010;4.446;2023-05-07T10:00:22;20.40;;;14.80;;
41293;SDS011;27037;52.010;4.446;2023-05-07T10:02:49;20.42;;;14.50;;
41293;SDS011;27037;52.010;4.446;2023-05-07T10:05:20;21.58;;;14.32;;
41293;SDS011;27037;52.010;4.446;2023-05-07T10:07:46;21.55;;;14.70;;
41293;SDS011;27037;52.010;4.446;2023-05-07T10:10:13;22.33;;;14.65;;
41293;SDS011;27037;52.010;4.446;2023-05-07T10:12:40;19.80;;;14.15;;
41293;SDS011;27037;52.010;4.446;2023-05-07T10:15:06;20.27;;;13.40;;
41293;SDS011;27037;52.010;4.446;2023-05-07T10:17:37;20.23;;;12.45;;
41293;SDS011;27037;52.010;4.446;2023-05-07T10:20:07;20.83;;;11.95;;
41293;SDS011;27037;52.010;4.446;2023-05-07T10:22:51;17.92;;;12.13;;
41293;SDS011;27037;52.010;4.446;2023-05-07T10:25:21;18.20;;;11.52;;
41293;SDS011;27037;52.010;4.446;2023-05-07T10:27:50;22.27;;;11.13;;
41293;SDS011;27037;52.010;4.446;2023-05-07T10:30:22;16.13;;;11.48;;
41293;SDS011;27037;52.010;4.446;2023-05-07T10:33:00;17.90;;;11.52;;
41293;SDS011;27037;52.010;4.446;2023-05-07T10:35:31;15.57;;;10.52;;
41293;SDS011;27037;52.010;4.446;2023-05-07T10:38:03;15.60;;;11.15;;
41293;SDS011;27037;52.010;4.446;2023-05-07T10:40:30;15.45;;;10.50;;
41293;SDS011;27037;52.010;4.446;2023-05-07T10:42:56;14.40;;;10.55;;
41293;SDS011;27037;52.010;4.446;2023-05-07T10:45:26;13.93;;;9.38;;
41293;SDS011;27037;52.010;4.446;2023-05-07T10:48:14;17.10;;;10.57;;
41293;SDS011;27037;52.010;4.446;2023-05-07T10:50:40;16.42;;;9.85;;
41293;SDS011;27037;52.010;4.446;2023-05-07T10:55:48;20.67;;;10.13;;
41293;SDS011;27037;52.010;4.446;2023-05-07T11:00:48;15.43;;;9.40;;
41293;SDS011;27037;52.010;4.446;2023-05-07T11:03:14;14.95;;;8.63;;
41293;SDS011;27037;52.010;4.446;2023-05-07T11:05:40;13.65;;;7.63;;
41293;SDS011;27037;52.010;4.446;2023-05-07T11:08:07;13.10;;;8.40;;
41293;SDS011;27037;52.010;4.446;2023-05-07T11:13:17;15.43;;;6.40;;
41293;SDS011;27037;52.010;4.446;2023-05-07T11:15:45;16.55;;;7.10;;
41293;SDS011;27037;52.010;4.446;2023-05-07T11:18:15;14.93;;;6.20;;
41293;SDS011;27037;52.010;4.446;2023-05-07T11:20:57;13.45;;;6.22;;
41293;SDS011;27037;52.010;4.446;2023-05-07T11:25:59;14.68;;;6.22;;
41293;SDS011;27037;52.010;4.446;2023-05-07T11:28:28;16.35;;;6.40;;
41293;SDS011;27037;52.010;4.446;2023-05-07T11:30:56;13.52;;;5.72;;
41293;SDS011;27037;52.010;4.446;2023-05-07T11:33:22;10.75;;;6.22;;
41293;SDS011;27037;52.010;4.446;2023-05-07T11:35:50;13.00;;;6.05;;
41293;SDS011;27037;52.010;4.446;2023-05-07T11:38:18;11.30;;;6.25;;
41293;SDS011;27037;52.010;4.446;2023-05-07T11:41:02;10.60;;;6.15;;
41293;SDS011;27037;52.010;4.446;2023-05-07T11:43:29;14.73;;;7.53;;
41293;SDS011;27037;52.010;4.446;2023-05-07T11:46:04;12.57;;;7.13;;
41293;SDS011;27037;52.010;4.446;2023-05-07T11:48:34;12.50;;;7.03;;
41293;SDS011;27037;52.010;4.446;2023-05-07T11:51:06;13.57;;;6.80;;
41293;SDS011;27037;52.010;4.446;2023-05-07T11:53:37;13.15;;;7.10;;
41293;SDS011;27037;52.010;4.446;2023-05-07T11:56:08;15.05;;;7.60;;
41293;SDS011;27037;52.010;4.446;2023-05-07T11:58:35;12.35;;;6.90;;
41293;SDS011;27037;52.010;4.446;2023-05-07T12:01:01;13.68;;;7.80;;
41293;SDS011;27037;52.010;4.446;2023-05-07T12:03:27;15.48;;;7.85;;
41293;SDS011;27037;52.010;4.446;2023-05-07T12:05:52;14.85;;;8.13;;
41293;SDS011;27037;52.010;4.446;2023-05-07T12:08:18;14.43;;;7.70;;
41293;SDS011;27037;52.010;4.446;2023-05-07T12:10:46;12.93;;;8.27;;
41293;SDS011;27037;52.010;4.446;2023-05-07T12:13:17;17.10;;;8.52;;
41293;SDS011;27037;52.010;4.446;2023-05-07T12:15:43;23.33;;;11.98;;
41293;SDS011;27037;52.010;4.446;2023-05-07T12:18:09;23.50;;;12.85;;
41293;SDS011;27037;52.010;4.446;2023-05-07T12:20:39;25.50;;;14.63;;
41293;SDS011;27037;52.010;4.446;2023-05-07T12:23:05;27.25;;;14.00;;
41293;SDS011;27037;52.010;4.446;2023-05-07T12:25:34;23.17;;;15.48;;
41293;SDS011;27037;52.010;4.446;2023-05-07T12:28:02;25.00;;;16.55;;
41293;SDS011;27037;52.010;4.446;2023-05-07T12:30:29;27.95;;;16.42;;
41293;SDS011;27037;52.010;4.446;2023-05-07T12:32:56;29.52;;;17.73;;
41293;SDS011;27037;52.010;4.446;2023-05-07T12:35:29;29.30;;;17.13;;
41293;SDS011;27037;52.010;4.446;2023-05-07T12:37:56;27.80;;;17.02;;
41293;SDS011;27037;52.010;4.446;2023-05-07T12:40:24;30.40;;;18.23;;
41293;SDS011;27037;52.010;4.446;2023-05-07T12:43:00;32.55;;;18.90;;
41293;SDS011;27037;52.010;4.446;2023-05-07T12:45:26;31.20;;;19.10;;
41293;SDS011;27037;52.010;4.446;2023-05-07T12:47:51;26.60;;;16.90;;
41293;SDS011;27037;52.010;4.446;2023-05-07T12:50:17;28.08;;;18.67;;
41293;SDS011;27037;52.010;4.446;2023-05-07T12:52:45;31.45;;;19.50;;
41293;SDS011;27037;52.010;4.446;2023-05-07T12:55:16;34.25;;;21.48;;
41293;SDS011;27037;52.010;4.446;2023-05-07T12:57:42;30.05;;;20.17;;
41293;SDS011;27037;52.010;4.446;2023-05-07T13:00:12;31.73;;;21.40;;
41293;SDS011;27037;52.010;4.446;2023-05-07T13:02:39;39.03;;;22.45;;
41293;SDS011;27037;52.010;4.446;2023-05-07T13:05:06;41.85;;;23.38;;
41293;SDS011;27037;52.010;4.446;2023-05-07T13:07:32;35.55;;;22.83;;
41293;SDS011;27037;52.010;4.446;2023-05-07T13:09:58;37.80;;;24.58;;
41293;SDS011;27037;52.010;4.446;2023-05-07T13:12:23;48.88;;;25.90;;
41293;SDS011;27037;52.010;4.446;2023-05-07T13:14:49;37.53;;;25.45;;
41293;SDS011;27037;52.010;4.446;2023-05-07T13:17:15;37.45;;;25.25;;
41293;SDS011;27037;52.010;4.446;2023-05-07T13:19:40;37.83;;;25.27;;
41293;SDS011;27037;52.010;4.446;2023-05-07T13:22:06;37.55;;;25.13;;
41293;SDS011;27037;52.010;4.446;2023-05-07T13:24:31;38.35;;;24.50;;
41293;SDS011;27037;52.010;4.446;2023-05-07T13:26:57;36.80;;;25.45;;
41293;SDS011;27037;52.010;4.446;2023-05-07T13:29:22;37.08;;;25.30;;
41293;SDS011;27037;52.010;4.446;2023-05-07T13:31:56;39.80;;;26.27;;
41293;SDS011;27037;52.010;4.446;2023-05-07T13:34:22;41.72;;;27.17;;
41293;SDS011;27037;52.010;4.446;2023-05-07T13:36:47;40.58;;;27.00;;
41293;SDS011;27037;52.010;4.446;2023-05-07T13:39:13;38.42;;;25.42;;
41293;SDS011;27037;52.010;4.446;2023-05-07T13:41:39;37.75;;;27.10;;
41293;SDS011;27037;52.010;4.446;2023-05-07T13:44:04;38.78;;;25.52;;
41293;SDS011;27037;52.010;4.446;2023-05-07T13:46:30;42.35;;;26.10;;
41293;SDS011;27037;52.010;4.446;2023-05-07T13:48:56;44.15;;;27.13;;
41293;SDS011;27037;52.010;4.446;2023-05-07T13:51:21;41.63;;;26.13;;
41293;SDS011;27037;52.010;4.446;2023-05-07T13:53:47;47.15;;;26.30;;
41293;SDS011;27037;52.010;4.446;2023-05-07T13:56:13;41.33;;;24.73;;
41293;SDS011;27037;52.010;4.446;2023-05-07T13:58:39;40.33;;;25.45;;
41293;SDS011;27037;52.010;4.446;2023-05-07T14:01:05;35.95;;;23.95;;
41293;SDS011;27037;52.010;4.446;2023-05-07T14:03:31;36.38;;;23.92;;
41293;SDS011;27037;52.010;4.446;2023-05-07T14:05:58;37.42;;;23.60;;
41293;SDS011;27037;52.010;4.446;2023-05-07T14:08:25;39.03;;;23.65;;
41293;SDS011;27037;52.010;4.446;2023-05-07T14:10:51;37.75;;;23.10;;
41293;SDS011;27037;52.010;4.446;2023-05-07T14:13:16;38.72;;;23.35;;
41293;SDS011;27037;52.010;4.446;2023-05-07T14:15:42;38.33;;;22.85;;
41293;SDS011;27037;52.010;4.446;2023-05-07T14:18:11;42.20;;;24.25;;
41293;SDS011;27037;52.010;4.446;2023-05-07T14:20:37;38.33;;;23.63;;
41293;SDS011;27037;52.010;4.446;2023-05-07T14:23:03;34.58;;;22.10;;
41293;SDS011;27037;52.010;4.446;2023-05-07T14:25:29;42.47;;;24.65;;
41293;SDS011;27037;52.010;4.446;2023-05-07T14:27:54;35.60;;;23.50;;
41293;SDS011;27037;52.010;4.446;2023-05-07T14:30:21;40.67;;;22.70;;
41293;SDS011;27037;52.010;4.446;2023-05-07T14:32:49;35.58;;;22.40;;
41293;SDS011;27037;52.010;4.446;2023-05-07T14:35:15;37.55;;;21.98;;